createdAt,value
2019-05-01T00:02:19.615Z,8.20
2019-05-01T00:05:05.009Z,8.20
2019-05-01T00:07:35.250Z,8.20
2019-05-01T00:10:03.822Z,8.00
2019-05-01T00:12:32.135Z,7.90
2019-05-01T00:15:00.674Z,7.80
2019-05-01T00:17:28.963Z,7.80
2019-05-01T00:19:57.270Z,7.70
2019-05-01T00:22:25.745Z,7.70
2019-05-01T00:24:54.027Z,7.70
2019-05-01T00:27:22.323Z,7.70
2019-05-01T00:29:50.609Z,7.60
2019-05-01T00:32:18.908Z,7.60
2019-05-01T00:34:47.214Z,7.60
2019-05-01T00:37:15.505Z,7.60
2019-05-01T00:39:43.789Z,7.60
2019-05-01T00:42:12.089Z,7.60
2019-05-01T00:44:40.319Z,7.60
2019-05-01T00:47:08.641Z,7.50
2019-05-01T00:49:37.102Z,7.40
2019-05-01T00:52:05.481Z,7.30
2019-05-01T00:54:35.482Z,7.20
2019-05-01T00:57:28.368Z,7.20
2019-05-01T01:00:08.807Z,7.10
2019-05-01T01:02:40.543Z,7.10
2019-05-01T01:05:08.802Z,7.20
2019-05-01T01:07:37.135Z,7.20
2019-05-01T01:10:06.586Z,7.20
2019-05-01T01:12:34.798Z,7.20
2019-05-01T01:15:03.241Z,7.10
2019-05-01T01:17:31.553Z,7.10
2019-05-01T01:19:59.927Z,7.20
2019-05-01T01:22:28.181Z,7.20
2019-05-01T01:24:56.510Z,7.10
2019-05-01T01:27:24.848Z,7.10
2019-05-01T01:29:53.362Z,7.00
2019-05-01T01:32:21.633Z,6.90
2019-05-01T01:34:49.919Z,7.00
2019-05-01T01:37:18.272Z,6.90
2019-05-01T01:39:46.763Z,6.80
2019-05-01T01:42:15.182Z,6.70
2019-05-01T01:45:11.466Z,6.60
2019-05-01T01:47:58.750Z,6.70
2019-05-01T01:50:27.050Z,6.60
2019-05-01T01:52:55.462Z,6.60
2019-05-01T01:55:23.890Z,6.50
2019-05-01T01:57:52.406Z,6.50
2019-05-01T02:00:22.359Z,6.40
2019-05-01T02:02:55.194Z,6.50
2019-05-01T02:05:29.453Z,6.50
2019-05-01T02:07:57.820Z,6.50
2019-05-01T02:10:26.217Z,6.50
2019-05-01T02:12:54.705Z,6.40
2019-05-01T02:15:22.986Z,6.40
2019-05-01T02:17:51.246Z,6.40
2019-05-01T02:20:19.550Z,6.40
2019-05-01T02:22:47.969Z,6.50
2019-05-01T02:25:16.447Z,6.50
2019-05-01T02:27:50.309Z,6.60
2019-05-01T02:30:19.691Z,6.50
2019-05-01T02:32:49.515Z,6.40
2019-05-01T02:35:18.603Z,6.50
2019-05-01T02:37:47.600Z,6.40
2019-05-01T02:40:33.610Z,6.40
2019-05-01T02:43:02.745Z,6.40
2019-05-01T02:45:31.117Z,6.30
2019-05-01T02:48:01.240Z,6.30
2019-05-01T02:50:31.210Z,6.20
2019-05-01T02:52:59.501Z,6.20
2019-05-01T02:55:37.596Z,6.20
2019-05-01T02:58:06.023Z,6.20
2019-05-01T03:00:35.124Z,6.20
2019-05-01T03:03:04.136Z,6.20
2019-05-01T03:05:32.398Z,6.20
2019-05-01T03:08:00.808Z,6.30
2019-05-01T03:10:29.134Z,6.30
2019-05-01T03:12:57.567Z,6.20
2019-05-01T03:15:27.291Z,6.20
2019-05-01T03:18:07.587Z,6.10
2019-05-01T03:20:48.746Z,6.10
2019-05-01T03:23:39.229Z,6.10
2019-05-01T03:26:09.463Z,6.10
2019-05-01T03:28:38.242Z,6.10
2019-05-01T03:31:06.613Z,6.10
2019-05-01T03:33:35.631Z,6.20
2019-05-01T03:36:04.985Z,6.20
2019-05-01T03:38:33.349Z,6.10
2019-05-01T03:41:01.667Z,6.10
2019-05-01T03:43:30.092Z,6.10
2019-05-01T03:45:58.582Z,6.10
2019-05-01T03:48:26.894Z,6.10
2019-05-01T03:50:55.989Z,5.90
2019-05-01T03:53:25.274Z,5.80
2019-05-01T03:55:53.677Z,5.80
2019-05-01T03:58:22.350Z,5.80
2019-05-01T04:01:08.326Z,5.70
2019-05-01T04:03:44.301Z,5.60
2019-05-01T04:06:12.724Z,5.70
2019-05-01T04:08:41.372Z,5.70
2019-05-01T04:11:10.361Z,5.80
2019-05-01T04:13:38.955Z,5.80
2019-05-01T04:16:09.135Z,5.70
2019-05-01T04:18:37.430Z,5.70
2019-05-01T04:21:07.476Z,5.70
2019-05-01T04:23:35.742Z,5.80
2019-05-01T04:26:04.130Z,5.80
2019-05-01T04:28:41.961Z,5.80
2019-05-01T04:31:32.421Z,5.80
2019-05-01T04:34:03.643Z,5.80
2019-05-01T04:36:36.181Z,5.70
2019-05-01T04:39:05.831Z,5.80
2019-05-01T04:41:34.674Z,5.80
2019-05-01T04:44:03.306Z,5.90
2019-05-01T04:46:32.297Z,5.90
2019-05-01T04:49:01.326Z,6.00
2019-05-01T04:51:29.612Z,6.10
2019-05-01T04:53:58.329Z,6.10
2019-05-01T04:56:26.853Z,6.10
2019-05-01T04:58:56.732Z,6.20
2019-05-01T05:01:28.878Z,6.20
2019-05-01T05:03:57.631Z,6.20
2019-05-01T05:06:26.516Z,6.20
2019-05-01T05:08:55.036Z,6.30
2019-05-01T05:11:25.615Z,6.40
2019-05-01T05:14:14.297Z,6.40
2019-05-01T05:16:53.263Z,6.40
2019-05-01T05:19:21.547Z,6.50
2019-05-01T05:21:50.482Z,6.50
2019-05-01T05:24:19.238Z,6.50
2019-05-01T05:26:48.975Z,6.60
2019-05-01T05:29:18.818Z,6.60
2019-05-01T05:31:47.776Z,6.70
2019-05-01T05:34:18.257Z,6.90
2019-05-01T05:36:48.337Z,7.00
2019-05-01T05:39:26.474Z,7.30
2019-05-01T05:41:55.845Z,7.50
2019-05-01T05:44:24.513Z,7.60
2019-05-01T05:46:52.768Z,7.60
2019-05-01T05:49:21.376Z,7.70
2019-05-01T05:51:58.820Z,7.70
2019-05-01T05:54:48.207Z,7.70
2019-05-01T05:57:25.776Z,7.80
2019-05-01T05:59:58.352Z,7.90
2019-05-01T06:03:02.535Z,7.80
2019-05-01T06:05:51.988Z,7.90
2019-05-01T06:08:24.101Z,8.00
2019-05-01T06:11:17.805Z,8.00
2019-05-01T06:14:03.766Z,8.10
2019-05-01T06:16:54.570Z,8.00
2019-05-01T06:19:38.870Z,8.10
2019-05-01T06:22:14.211Z,8.00
2019-05-01T06:24:45.455Z,8.00
2019-05-01T06:27:15.018Z,8.00
2019-05-01T06:29:44.286Z,8.00
2019-05-01T06:32:12.657Z,8.10
2019-05-01T06:34:41.038Z,8.10
2019-05-01T06:37:09.366Z,8.20
2019-05-01T06:39:37.950Z,8.30
2019-05-01T06:42:09.758Z,8.30
2019-05-01T06:44:44.253Z,8.30
2019-05-01T06:47:30.556Z,8.50
2019-05-01T06:50:19.240Z,8.60
2019-05-01T06:52:48.299Z,8.70
2019-05-01T06:55:16.605Z,8.80
2019-05-01T06:57:45.732Z,8.90
2019-05-01T07:00:17.952Z,9.10
2019-05-01T07:02:47.643Z,9.20
2019-05-01T07:05:16.507Z,9.30
2019-05-01T07:07:48.112Z,9.50
2019-05-01T07:10:15.576Z,9.50
2019-05-01T07:12:45.954Z,9.60
2019-05-01T07:15:14.428Z,9.80
2019-05-01T07:17:43.822Z,9.90
2019-05-01T07:20:41.030Z,10.00
2019-05-01T07:23:12.744Z,10.10
2019-05-01T07:25:40.686Z,10.20
2019-05-01T07:28:09.342Z,10.10
2019-05-01T07:30:56.283Z,10.10
2019-05-01T07:33:24.706Z,10.10
2019-05-01T07:35:54.027Z,10.20
2019-05-01T07:38:22.826Z,10.20
2019-05-01T07:40:51.214Z,10.00
2019-05-01T07:43:40.713Z,10.10
2019-05-01T07:46:31.086Z,10.20
2019-05-01T07:48:59.754Z,10.30
2019-05-01T07:51:28.067Z,10.40
2019-05-01T07:53:59.093Z,10.40
2019-05-01T07:56:28.094Z,10.40
2019-05-01T07:58:57.714Z,10.40
2019-05-01T08:01:50.062Z,10.40
2019-05-01T08:04:35.281Z,10.60
2019-05-01T08:06:52.107Z,10.70
2019-05-01T08:09:20.325Z,10.70
2019-05-01T08:11:48.726Z,10.80
2019-05-01T08:14:18.685Z,10.80
2019-05-01T08:16:47.191Z,10.80
2019-05-01T08:19:20.816Z,11.00
2019-05-01T08:22:17.622Z,11.20
2019-05-01T08:24:46.005Z,11.30
2019-05-01T08:27:30.535Z,11.30
2019-05-01T08:30:21.041Z,11.40
2019-05-01T08:32:55.327Z,11.60
2019-05-01T08:35:24.617Z,11.80
2019-05-01T08:37:53.820Z,12.10
2019-05-01T08:40:23.130Z,12.10
2019-05-01T08:42:51.429Z,12.10
2019-05-01T08:45:40.635Z,12.40
2019-05-01T08:48:21.237Z,12.50
2019-05-01T08:50:50.033Z,12.50
2019-05-01T08:53:22.049Z,12.60
2019-05-01T08:55:48.611Z,12.80
2019-05-01T08:58:16.982Z,12.60
2019-05-01T09:00:45.407Z,12.30
2019-05-01T09:03:18.584Z,12.30
2019-05-01T09:05:44.358Z,12.20
2019-05-01T09:08:12.741Z,12.40
2019-05-01T09:10:41.160Z,12.40
2019-05-01T09:13:09.572Z,12.30
2019-05-01T09:15:37.941Z,12.30
2019-05-01T09:18:06.250Z,12.30
2019-05-01T09:20:35.671Z,12.10
2019-05-01T09:23:04.155Z,11.60
2019-05-01T09:25:44.559Z,11.60
2019-05-01T09:28:39.368Z,11.70
2019-05-01T09:31:05.849Z,11.90
2019-05-01T09:33:34.162Z,12.10
2019-05-01T09:36:02.520Z,12.10
2019-05-01T09:38:32.213Z,12.20
2019-05-01T09:41:00.629Z,12.40
2019-05-01T09:43:31.030Z,12.40
2019-05-01T09:46:00.314Z,12.60
2019-05-01T09:48:28.658Z,12.50
2019-05-01T09:51:17.227Z,12.60
2019-05-01T09:54:09.755Z,12.70
2019-05-01T09:56:38.448Z,12.90
2019-05-01T09:59:06.987Z,13.00
2019-05-01T10:01:35.551Z,13.30
2019-05-01T10:04:05.596Z,13.30
2019-05-01T10:06:34.193Z,13.40
2019-05-01T10:09:02.626Z,13.50
2019-05-01T10:11:31.501Z,13.60
2019-05-01T10:13:59.972Z,13.60
2019-05-01T10:16:28.505Z,13.60
2019-05-01T10:18:57.289Z,13.70
2019-05-01T10:21:27.299Z,13.70
2019-05-01T10:23:56.217Z,13.80
2019-05-01T10:26:26.249Z,13.80
2019-05-01T10:29:16.803Z,13.80
2019-05-01T10:31:58.228Z,14.00
2019-05-01T10:34:42.938Z,14.00
2019-05-01T10:37:12.056Z,13.90
2019-05-01T10:39:40.433Z,14.10
2019-05-01T10:42:08.989Z,14.00
2019-05-01T10:44:37.315Z,14.20
2019-05-01T10:47:05.737Z,14.30
2019-05-01T10:49:34.384Z,14.30
2019-05-01T10:52:13.567Z,14.40
2019-05-01T10:54:32.748Z,14.50
2019-05-01T10:57:03.364Z,14.50
2019-05-01T10:59:31.136Z,14.60
2019-05-01T11:02:01.568Z,14.50
2019-05-01T11:04:30.298Z,14.50
2019-05-01T11:06:58.729Z,14.40
2019-05-01T11:09:27.080Z,14.50
2019-05-01T11:11:55.564Z,14.40
2019-05-01T11:14:24.033Z,14.50
2019-05-01T11:16:52.388Z,14.40
2019-05-01T11:19:20.792Z,14.60
2019-05-01T11:21:49.186Z,14.60
2019-05-01T11:24:17.593Z,14.70
2019-05-01T11:26:46.143Z,14.80
2019-05-01T11:29:14.506Z,15.00
2019-05-01T11:31:55.018Z,15.10
2019-05-01T11:34:42.770Z,15.00
2019-05-01T11:37:18.468Z,15.10
2019-05-01T11:39:56.307Z,15.30
2019-05-01T11:42:24.730Z,15.20
2019-05-01T11:44:53.056Z,15.10
2019-05-01T11:47:21.450Z,15.20
2019-05-01T11:49:49.912Z,15.30
2019-05-01T11:52:18.631Z,15.50
2019-05-01T11:54:47.405Z,15.20
2019-05-01T11:57:15.765Z,15.10
2019-05-01T11:59:44.254Z,15.10
2019-05-01T12:02:12.782Z,15.30
2019-05-01T12:04:42.070Z,15.30
2019-05-01T12:07:11.289Z,15.40
2019-05-01T12:09:40.060Z,15.40
2019-05-01T12:12:13.506Z,15.40
2019-05-01T12:14:41.861Z,15.50
2019-05-01T12:17:29.248Z,15.20
2019-05-01T12:19:57.582Z,15.20
2019-05-01T12:22:25.929Z,15.20
2019-05-01T12:24:54.394Z,15.10
2019-05-01T12:27:22.759Z,15.00
2019-05-01T12:29:51.101Z,15.20
2019-05-01T12:32:19.479Z,15.30
2019-05-01T12:34:48.130Z,15.30
2019-05-01T12:37:20.716Z,15.10
2019-05-01T12:39:49.017Z,15.00
2019-05-01T12:42:18.811Z,14.90
2019-05-01T12:44:47.257Z,15.00
2019-05-01T12:47:23.707Z,14.90
2019-05-01T12:49:52.488Z,14.90
2019-05-01T12:55:39.564Z,15.20
2019-05-01T12:58:07.932Z,15.20
2019-05-01T13:00:47.549Z,15.30
2019-05-01T13:03:16.015Z,15.50
2019-05-01T13:06:14.555Z,15.60
2019-05-01T13:08:42.967Z,15.50
2019-05-01T13:11:11.385Z,15.70
2019-05-01T13:13:39.779Z,15.70
2019-05-01T13:16:10.456Z,15.70
2019-05-01T13:18:38.720Z,15.70
2019-05-01T13:21:06.989Z,15.70
2019-05-01T13:23:37.357Z,15.80
2019-05-01T13:26:22.955Z,15.90
2019-05-01T13:29:01.684Z,16.20
2019-05-01T13:31:49.001Z,16.40
2019-05-01T13:34:17.283Z,16.40
2019-05-01T13:36:45.583Z,16.60
2019-05-01T13:39:14.236Z,16.60
2019-05-01T13:41:42.566Z,16.50
2019-05-01T13:44:10.860Z,16.50
2019-05-01T13:46:39.305Z,16.40
2019-05-01T13:49:07.732Z,16.50
2019-05-01T13:51:36.116Z,16.50
2019-05-01T13:54:06.352Z,16.50
2019-05-01T13:56:35.208Z,16.40
2019-05-01T13:59:04.402Z,16.40
2019-05-01T14:01:33.043Z,16.30
2019-05-01T14:04:01.341Z,16.40
2019-05-01T14:06:29.697Z,16.30
2019-05-01T14:08:57.997Z,16.40
2019-05-01T14:11:26.536Z,16.50
2019-05-01T14:13:54.852Z,16.70
2019-05-01T14:16:23.216Z,16.70
2019-05-01T14:18:51.485Z,16.80
2019-05-01T14:21:29.915Z,17.00
2019-05-01T14:24:16.020Z,17.00
2019-05-01T14:26:44.308Z,17.00
2019-05-01T14:29:12.605Z,17.10
2019-05-01T14:31:40.888Z,17.10
2019-05-01T14:34:09.171Z,16.80
2019-05-01T14:36:39.787Z,16.80
2019-05-01T14:39:08.602Z,16.90
2019-05-01T14:41:36.887Z,17.00
2019-05-01T14:44:05.342Z,17.10
2019-05-01T14:46:33.713Z,17.20
2019-05-01T14:49:02.048Z,17.20
2019-05-01T14:51:30.459Z,17.20
2019-05-01T14:53:58.819Z,17.20
2019-05-01T14:56:27.117Z,16.90
2019-05-01T14:58:55.449Z,16.90
2019-05-01T15:01:23.782Z,16.90
2019-05-01T15:03:52.103Z,16.90
2019-05-01T15:06:20.452Z,16.80
2019-05-01T15:08:48.680Z,16.80
2019-05-01T15:11:17.341Z,16.90
2019-05-01T15:14:10.763Z,16.80
2019-05-01T15:16:52.792Z,17.00
2019-05-01T15:19:23.190Z,16.90
2019-05-01T15:21:51.538Z,16.50
2019-05-01T15:24:19.838Z,16.40
2019-05-01T15:26:48.165Z,16.50
2019-05-01T15:29:16.463Z,16.70
2019-05-01T15:31:44.760Z,16.70
2019-05-01T15:34:15.462Z,16.60
2019-05-01T15:36:43.731Z,16.70
2019-05-01T15:39:18.637Z,16.80
2019-05-01T15:42:11.759Z,16.90
2019-05-01T15:44:40.143Z,16.90
2019-05-01T15:47:08.411Z,16.80
2019-05-01T15:49:36.721Z,16.70
2019-05-01T15:52:05.083Z,16.70
2019-05-01T15:54:33.545Z,16.80
2019-05-01T15:57:01.814Z,16.80
2019-05-01T15:59:30.368Z,16.60
2019-05-01T16:01:58.630Z,16.60
2019-05-01T16:04:27.135Z,16.70
2019-05-01T16:06:55.423Z,16.80
2019-05-01T16:09:23.826Z,16.80
2019-05-01T16:12:11.208Z,16.90
2019-05-01T16:14:44.963Z,16.90
2019-05-01T16:17:13.257Z,17.00
2019-05-01T16:19:41.593Z,17.00
2019-05-01T16:22:09.844Z,17.00
2019-05-01T16:24:38.185Z,17.00
2019-05-01T16:27:06.540Z,16.90
2019-05-01T16:29:35.183Z,16.90
2019-05-01T16:32:03.577Z,17.00
2019-05-01T16:34:33.404Z,16.80
2019-05-01T16:37:02.034Z,16.80
2019-05-01T16:39:55.757Z,16.80
2019-05-01T16:42:32.141Z,16.70
2019-05-01T16:45:00.439Z,16.50
2019-05-01T16:47:28.738Z,16.30
2019-05-01T16:49:57.081Z,16.40
2019-05-01T16:52:29.613Z,16.40
2019-05-01T16:54:59.341Z,16.40
2019-05-01T16:57:28.112Z,16.50
2019-05-01T16:59:56.464Z,16.50
2019-05-01T17:02:53.055Z,16.50
2019-05-01T17:05:39.053Z,16.50
2019-05-01T17:08:36.746Z,16.40
2019-05-01T17:11:08.320Z,16.30
2019-05-01T17:13:36.745Z,16.40
2019-05-01T17:16:05.585Z,16.30
2019-05-01T17:18:34.410Z,16.30
2019-05-01T17:21:02.990Z,16.20
2019-05-01T17:23:31.332Z,16.10
2019-05-01T17:25:59.707Z,16.10
2019-05-01T17:28:28.138Z,16.10
2019-05-01T17:31:00.958Z,16.00
2019-05-01T17:33:29.726Z,16.00
2019-05-01T17:35:58.177Z,16.00
2019-05-01T17:38:26.595Z,15.90
2019-05-01T17:40:55.094Z,15.90
2019-05-01T17:43:23.727Z,15.80
2019-05-01T17:45:52.143Z,15.90
2019-05-01T17:48:20.584Z,15.70
2019-05-01T17:50:49.052Z,15.60
2019-05-01T17:53:17.620Z,15.60
2019-05-01T17:55:45.999Z,15.50
2019-05-01T17:58:14.472Z,15.40
2019-05-01T18:01:00.569Z,15.40
2019-05-01T18:03:53.558Z,15.30
2019-05-01T18:06:30.371Z,15.30
2019-05-01T18:09:03.282Z,15.30
2019-05-01T18:11:29.174Z,15.20
2019-05-01T18:13:58.653Z,15.20
2019-05-01T18:16:27.252Z,15.10
2019-05-01T18:18:55.662Z,15.00
2019-05-01T18:21:24.289Z,14.90
2019-05-01T18:24:10.385Z,14.80
2019-05-01T18:27:10.046Z,14.70
2019-05-01T18:29:46.637Z,14.50
2019-05-01T18:32:20.886Z,14.30
2019-05-01T18:34:50.978Z,14.10
2019-05-01T18:37:31.267Z,14.00
2019-05-01T18:39:58.111Z,13.90
2019-05-01T18:42:26.645Z,13.80
2019-05-01T18:44:55.204Z,13.70
2019-05-01T18:47:23.737Z,13.60
2019-05-01T18:49:52.209Z,13.50
2019-05-01T18:52:20.807Z,13.50
2019-05-01T18:54:49.438Z,13.40
2019-05-01T18:57:18.020Z,13.30
2019-05-01T18:59:46.431Z,13.30
2019-05-01T19:02:20.607Z,13.30
2019-05-01T19:04:49.599Z,13.30
2019-05-01T19:07:18.601Z,13.30
2019-05-01T19:09:49.827Z,13.30
2019-05-01T19:12:18.381Z,13.20
2019-05-01T19:14:47.076Z,13.20
2019-05-01T19:17:15.519Z,13.10
2019-05-01T19:19:44.389Z,13.10
2019-05-01T19:22:13.035Z,13.10
2019-05-01T19:24:41.518Z,13.00
2019-05-01T19:27:14.111Z,13.00
2019-05-01T19:29:40.240Z,12.90
2019-05-01T19:32:09.701Z,12.90
2019-05-01T19:34:38.808Z,12.70
2019-05-01T19:37:09.342Z,12.60
2019-05-01T19:39:43.793Z,12.50
2019-05-01T19:42:11.621Z,12.40
2019-05-01T19:44:40.236Z,12.50
2019-05-01T19:47:08.657Z,12.40
2019-05-01T19:49:37.529Z,12.40
2019-05-01T19:52:06.497Z,12.30
2019-05-01T19:54:34.920Z,12.20
2019-05-01T19:57:03.405Z,12.10
2019-05-01T19:59:32.215Z,12.00
2019-05-01T20:02:00.948Z,11.90
2019-05-01T20:04:29.711Z,11.90
2019-05-01T20:06:58.357Z,11.90
2019-05-01T20:09:27.456Z,11.90
2019-05-01T20:11:56.156Z,11.90
2019-05-01T20:14:24.871Z,11.90
2019-05-01T20:16:54.423Z,11.90
2019-05-01T20:19:23.604Z,11.80
2019-05-01T20:21:52.133Z,11.90
2019-05-01T20:24:22.472Z,11.90
2019-05-01T20:26:51.272Z,11.80
2019-05-01T20:29:20.517Z,11.80
2019-05-01T20:31:50.623Z,11.80
2019-05-01T20:34:19.626Z,11.70
2019-05-01T20:36:49.258Z,11.50
2019-05-01T20:39:17.820Z,11.50
2019-05-01T20:41:46.572Z,11.50
2019-05-01T20:44:22.951Z,11.40
2019-05-01T20:46:45.053Z,11.40
2019-05-01T20:49:13.835Z,11.30
2019-05-01T20:51:42.305Z,11.30
2019-05-01T20:54:10.732Z,11.20
2019-05-01T20:56:58.257Z,11.10
2019-05-01T20:59:26.683Z,11.10
2019-05-01T21:01:59.652Z,11.00
2019-05-01T21:04:47.051Z,10.90
2019-05-01T21:07:19.850Z,10.90
2019-05-01T21:09:57.274Z,10.80
2019-05-01T21:12:19.616Z,10.80
2019-05-01T21:14:49.581Z,10.80
2019-05-01T21:17:18.087Z,10.70
2019-05-01T21:19:46.465Z,10.60
2019-05-01T21:22:14.828Z,10.40
2019-05-01T21:24:44.348Z,10.30
2019-05-01T21:27:13.376Z,10.20
2019-05-01T21:29:42.000Z,10.10
2019-05-01T21:32:10.600Z,10.10
2019-05-01T21:34:38.879Z,10.10
2019-05-01T21:37:07.193Z,10.00
2019-05-01T21:39:35.500Z,10.00
2019-05-01T21:42:04.727Z,9.90
2019-05-01T21:44:36.317Z,9.80
2019-05-01T21:47:04.977Z,9.80
2019-05-01T21:49:33.382Z,9.70
2019-05-01T21:52:03.770Z,9.60
2019-05-01T21:54:31.671Z,9.60
2019-05-01T21:57:00.884Z,9.60
2019-05-01T21:59:29.134Z,9.50
2019-05-01T22:01:57.364Z,9.50
2019-05-01T22:04:27.787Z,9.50
2019-05-01T22:06:57.324Z,9.40
2019-05-01T22:09:27.388Z,9.30
2019-05-01T22:11:55.657Z,9.30
2019-05-01T22:14:37.016Z,9.30
2019-05-01T22:17:07.770Z,9.40
2019-05-01T22:19:36.029Z,9.30
2019-05-01T22:22:31.055Z,9.30
2019-05-01T22:25:12.062Z,9.20
2019-05-01T22:27:43.812Z,9.20
2019-05-01T22:30:20.052Z,9.20
2019-05-01T22:32:51.214Z,9.20
2019-05-01T22:35:23.377Z,9.10
2019-05-01T22:37:51.634Z,9.10
2019-05-01T22:40:25.261Z,9.00
2019-05-01T22:42:53.508Z,9.10
2019-05-01T22:45:22.603Z,9.00
2019-05-01T22:47:52.054Z,8.80
2019-05-01T22:50:20.682Z,8.80
2019-05-01T22:52:49.068Z,8.80
2019-05-01T22:55:20.325Z,8.70
2019-05-01T22:57:47.304Z,8.60
2019-05-01T23:00:21.069Z,8.60
2019-05-01T23:02:49.683Z,8.70
2019-05-01T23:05:17.919Z,8.60
2019-05-01T23:07:46.195Z,8.60
2019-05-01T23:10:14.506Z,8.60
2019-05-01T23:12:42.744Z,8.50
2019-05-01T23:15:16.633Z,8.50
2019-05-01T23:17:46.072Z,8.50
2019-05-01T23:20:15.207Z,8.50
2019-05-01T23:22:43.547Z,8.40
2019-05-01T23:25:11.932Z,8.30
2019-05-01T23:27:41.330Z,8.30
2019-05-01T23:30:09.923Z,8.20
2019-05-01T23:32:38.159Z,8.30
2019-05-01T23:35:06.575Z,8.30
2019-05-01T23:37:34.898Z,8.30
2019-05-01T23:40:03.147Z,8.30
2019-05-01T23:42:31.483Z,8.20
2019-05-01T23:44:59.815Z,8.20
2019-05-01T23:47:28.155Z,8.10
2019-05-01T23:49:56.630Z,8.10
2019-05-01T23:52:25.107Z,8.10
2019-05-01T23:54:53.391Z,8.00
2019-05-01T23:57:21.711Z,8.00
2019-05-01T23:59:50.032Z,8.00
